sensor_id;sensor_type;location;lat;lon;timestamp;P1;durP1;ratioP1;P2;durP2;ratioP2
37777;SDS011;23615;51.506;7.678;2023-12-14T00:01:13;4.53;;;3.60;;
37777;SDS011;23615;51.506;7.678;2023-12-14T00:03:39;3.23;;;2.60;;
37777;SDS011;23615;51.506;7.678;2023-12-14T00:06:07;3.65;;;2.40;;
37777;SDS011;23615;51.506;7.678;2023-12-14T00:08:35;4.10;;;3.05;;
37777;SDS011;23615;51.506;7.678;2023-12-14T00:11:08;3.60;;;2.57;;
37777;SDS011;23615;51.506;7.678;2023-12-14T00:13:34;3.85;;;2.90;;
37777;SDS011;23615;51.506;7.678;2023-12-14T00:15:59;3.70;;;3.10;;
37777;SDS011;23615;51.506;7.678;2023-12-14T00:18:25;3.85;;;2.83;;
37777;SDS011;23615;51.506;7.678;2023-12-14T00:20:50;4.57;;;3.30;;
37777;SDS011;23615;51.506;7.678;2023-12-14T00:23:17;4.35;;;2.70;;
37777;SDS011;23615;51.506;7.678;2023-12-14T00:25:43;4.03;;;3.00;;
37777;SDS011;23615;51.506;7.678;2023-12-14T00:28:08;6.40;;;3.93;;
37777;SDS011;23615;51.506;7.678;2023-12-14T00:30:33;6.30;;;4.03;;
37777;SDS011;23615;51.506;7.678;2023-12-14T00:32:58;5.73;;;4.83;;
37777;SDS011;23615;51.506;7.678;2023-12-14T00:35:24;5.03;;;4.00;;
37777;SDS011;23615;51.506;7.678;2023-12-14T00:37:49;4.20;;;3.80;;
37777;SDS011;23615;51.506;7.678;2023-12-14T00:40:14;6.27;;;4.30;;
37777;SDS011;23615;51.506;7.678;2023-12-14T00:42:40;4.40;;;4.00;;
37777;SDS011;23615;51.506;7.678;2023-12-14T00:45:05;4.43;;;3.30;;
37777;SDS011;23615;51.506;7.678;2023-12-14T00:47:31;4.45;;;4.05;;
37777;SDS011;23615;51.506;7.678;2023-12-14T00:49:56;4.13;;;3.73;;
37777;SDS011;23615;51.506;7.678;2023-12-14T00:52:21;4.87;;;3.50;;
37777;SDS011;23615;51.506;7.678;2023-12-14T00:54:47;4.57;;;4.17;;
37777;SDS011;23615;51.506;7.678;2023-12-14T00:57:12;4.43;;;4.03;;
37777;SDS011;23615;51.506;7.678;2023-12-14T00:59:37;3.97;;;3.17;;
37777;SDS011;23615;51.506;7.678;2023-12-14T01:02:03;3.93;;;3.53;;
37777;SDS011;23615;51.506;7.678;2023-12-14T01:04:28;3.40;;;3.10;;
37777;SDS011;23615;51.506;7.678;2023-12-14T01:06:53;3.37;;;3.07;;
37777;SDS011;23615;51.506;7.678;2023-12-14T01:09:19;2.50;;;2.30;;
37777;SDS011;23615;51.506;7.678;2023-12-14T01:11:44;2.27;;;2.07;;
37777;SDS011;23615;51.506;7.678;2023-12-14T01:14:09;2.53;;;2.30;;
37777;SDS011;23615;51.506;7.678;2023-12-14T01:16:35;2.50;;;2.30;;
37777;SDS011;23615;51.506;7.678;2023-12-14T01:19:00;3.90;;;3.50;;
37777;SDS011;23615;51.506;7.678;2023-12-14T01:21:25;3.87;;;3.00;;
37777;SDS011;23615;51.506;7.678;2023-12-14T01:23:51;6.17;;;4.00;;
37777;SDS011;23615;51.506;7.678;2023-12-14T01:26:17;4.15;;;3.75;;
37777;SDS011;23615;51.506;7.678;2023-12-14T01:28:43;4.10;;;3.63;;
37777;SDS011;23615;51.506;7.678;2023-12-14T01:31:08;4.22;;;3.70;;
37777;SDS011;23615;51.506;7.678;2023-12-14T01:33:34;3.70;;;3.40;;
37777;SDS011;23615;51.506;7.678;2023-12-14T01:35:59;4.20;;;3.80;;
37777;SDS011;23615;51.506;7.678;2023-12-14T01:38:24;4.20;;;3.80;;
37777;SDS011;23615;51.506;7.678;2023-12-14T01:40:50;3.60;;;3.20;;
37777;SDS011;23615;51.506;7.678;2023-12-14T01:43:15;4.03;;;3.67;;
37777;SDS011;23615;51.506;7.678;2023-12-14T01:45:40;3.77;;;3.47;;
37777;SDS011;23615;51.506;7.678;2023-12-14T01:48:06;4.47;;;3.67;;
37777;SDS011;23615;51.506;7.678;2023-12-14T01:50:31;4.93;;;4.40;;
37777;SDS011;23615;51.506;7.678;2023-12-14T01:52:57;9.37;;;7.90;;
37777;SDS011;23615;51.506;7.678;2023-12-14T01:55:22;11.13;;;9.53;;
37777;SDS011;23615;51.506;7.678;2023-12-14T01:57:47;10.87;;;9.03;;
37777;SDS011;23615;51.506;7.678;2023-12-14T02:00:15;16.83;;;10.93;;
37777;SDS011;23615;51.506;7.678;2023-12-14T02:02:59;18.10;;;10.93;;
37777;SDS011;23615;51.506;7.678;2023-12-14T02:05:25;18.27;;;10.70;;
37777;SDS011;23615;51.506;7.678;2023-12-14T02:07:50;13.70;;;10.97;;
37777;SDS011;23615;51.506;7.678;2023-12-14T02:10:15;15.50;;;10.77;;
37777;SDS011;23615;51.506;7.678;2023-12-14T02:12:40;12.20;;;9.47;;
37777;SDS011;23615;51.506;7.678;2023-12-14T02:15:06;9.03;;;7.43;;
37777;SDS011;23615;51.506;7.678;2023-12-14T02:17:32;9.73;;;7.68;;
37777;SDS011;23615;51.506;7.678;2023-12-14T02:19:57;12.37;;;8.63;;
37777;SDS011;23615;51.506;7.678;2023-12-14T02:22:23;11.25;;;8.52;;
37777;SDS011;23615;51.506;7.678;2023-12-14T02:24:48;10.45;;;8.10;;
37777;SDS011;23615;51.506;7.678;2023-12-14T02:27:14;10.37;;;8.50;;
37777;SDS011;23615;51.506;7.678;2023-12-14T02:29:39;11.23;;;7.67;;
37777;SDS011;23615;51.506;7.678;2023-12-14T02:32:05;9.88;;;7.53;;
37777;SDS011;23615;51.506;7.678;2023-12-14T02:34:30;10.03;;;7.10;;
37777;SDS011;23615;51.506;7.678;2023-12-14T02:36:56;9.73;;;7.40;;
37777;SDS011;23615;51.506;7.678;2023-12-14T02:39:21;8.97;;;7.03;;
37777;SDS011;23615;51.506;7.678;2023-12-14T02:41:46;8.37;;;7.00;;
37777;SDS011;23615;51.506;7.678;2023-12-14T02:44:12;10.07;;;7.33;;
37777;SDS011;23615;51.506;7.678;2023-12-14T02:46:37;7.67;;;6.00;;
37777;SDS011;23615;51.506;7.678;2023-12-14T02:49:02;7.83;;;6.20;;
37777;SDS011;23615;51.506;7.678;2023-12-14T02:51:28;7.38;;;6.20;;
37777;SDS011;23615;51.506;7.678;2023-12-14T02:53:53;8.77;;;6.53;;
37777;SDS011;23615;51.506;7.678;2023-12-14T02:56:18;9.17;;;7.23;;
37777;SDS011;23615;51.506;7.678;2023-12-14T02:58:44;9.40;;;7.53;;
37777;SDS011;23615;51.506;7.678;2023-12-14T03:01:09;9.00;;;7.27;;
37777;SDS011;23615;51.506;7.678;2023-12-14T03:03:37;9.10;;;6.97;;
37777;SDS011;23615;51.506;7.678;2023-12-14T03:06:03;10.10;;;7.25;;
37777;SDS011;23615;51.506;7.678;2023-12-14T03:08:29;7.53;;;6.72;;
37777;SDS011;23615;51.506;7.678;2023-12-14T03:10:54;9.20;;;6.57;;
37777;SDS011;23615;51.506;7.678;2023-12-14T03:13:19;7.95;;;6.45;;
37777;SDS011;23615;51.506;7.678;2023-12-14T03:15:45;9.70;;;6.88;;
37777;SDS011;23615;51.506;7.678;2023-12-14T03:18:11;9.50;;;7.13;;
37777;SDS011;23615;51.506;7.678;2023-12-14T03:20:37;10.38;;;7.93;;
37777;SDS011;23615;51.506;7.678;2023-12-14T03:23:02;9.65;;;7.63;;
37777;SDS011;23615;51.506;7.678;2023-12-14T03:25:28;10.68;;;7.90;;
37777;SDS011;23615;51.506;7.678;2023-12-14T03:27:53;7.73;;;6.40;;
37777;SDS011;23615;51.506;7.678;2023-12-14T03:30:18;9.00;;;7.07;;
37777;SDS011;23615;51.506;7.678;2023-12-14T03:32:44;10.70;;;8.10;;
37777;SDS011;23615;51.506;7.678;2023-12-14T03:35:09;10.40;;;8.13;;
37777;SDS011;23615;51.506;7.678;2023-12-14T03:37:34;9.73;;;7.30;;
37777;SDS011;23615;51.506;7.678;2023-12-14T03:40:00;11.05;;;7.63;;
37777;SDS011;23615;51.506;7.678;2023-12-14T03:42:25;12.48;;;8.82;;
37777;SDS011;23615;51.506;7.678;2023-12-14T03:44:51;11.47;;;8.17;;
37777;SDS011;23615;51.506;7.678;2023-12-14T03:47:16;9.57;;;7.13;;
37777;SDS011;23615;51.506;7.678;2023-12-14T03:49:41;10.10;;;8.10;;
37777;SDS011;23615;51.506;7.678;2023-12-14T03:52:07;9.40;;;7.60;;
37777;SDS011;23615;51.506;7.678;2023-12-14T03:54:33;11.07;;;7.80;;
37777;SDS011;23615;51.506;7.678;2023-12-14T03:56:59;9.77;;;7.47;;
37777;SDS011;23615;51.506;7.678;2023-12-14T03:59:24;7.73;;;6.77;;
37777;SDS011;23615;51.506;7.678;2023-12-14T04:01:49;7.78;;;6.22;;
37777;SDS011;23615;51.506;7.678;2023-12-14T04:04:15;8.00;;;6.17;;
37777;SDS011;23615;51.506;7.678;2023-12-14T04:06:40;7.50;;;6.23;;
37777;SDS011;23615;51.506;7.678;2023-12-14T04:09:05;8.53;;;6.63;;
37777;SDS011;23615;51.506;7.678;2023-12-14T04:11:31;9.43;;;7.13;;
37777;SDS011;23615;51.506;7.678;2023-12-14T04:13:56;9.33;;;7.47;;
37777;SDS011;23615;51.506;7.678;2023-12-14T04:16:21;10.53;;;7.93;;
37777;SDS011;23615;51.506;7.678;2023-12-14T04:18:48;9.43;;;7.75;;
37777;SDS011;23615;51.506;7.678;2023-12-14T04:21:14;11.55;;;7.60;;
37777;SDS011;23615;51.506;7.678;2023-12-14T04:23:39;10.57;;;7.57;;
37777;SDS011;23615;51.506;7.678;2023-12-14T04:26:05;11.63;;;8.10;;
37777;SDS011;23615;51.506;7.678;2023-12-14T04:28:30;8.63;;;6.93;;
37777;SDS011;23615;51.506;7.678;2023-12-14T04:30:55;10.77;;;7.67;;
37777;SDS011;23615;51.506;7.678;2023-12-14T04:33:21;10.80;;;7.32;;
37777;SDS011;23615;51.506;7.678;2023-12-14T04:35:46;8.68;;;6.47;;
37777;SDS011;23615;51.506;7.678;2023-12-14T04:38:11;9.67;;;7.00;;
37777;SDS011;23615;51.506;7.678;2023-12-14T04:40:37;10.20;;;7.15;;
37777;SDS011;23615;51.506;7.678;2023-12-14T04:43:02;8.95;;;6.60;;
37777;SDS011;23615;51.506;7.678;2023-12-14T04:45:28;9.48;;;6.93;;
37777;SDS011;23615;51.506;7.678;2023-12-14T04:47:53;8.77;;;6.82;;
37777;SDS011;23615;51.506;7.678;2023-12-14T04:50:18;8.13;;;6.20;;
37777;SDS011;23615;51.506;7.678;2023-12-14T04:52:44;8.17;;;5.93;;
37777;SDS011;23615;51.506;7.678;2023-12-14T04:55:09;7.63;;;5.80;;
37777;SDS011;23615;51.506;7.678;2023-12-14T04:57:35;7.70;;;5.97;;
37777;SDS011;23615;51.506;7.678;2023-12-14T05:00:01;8.60;;;6.10;;
37777;SDS011;23615;51.506;7.678;2023-12-14T05:02:27;8.55;;;6.75;;
37777;SDS011;23615;51.506;7.678;2023-12-14T05:04:52;7.97;;;5.70;;
37777;SDS011;23615;51.506;7.678;2023-12-14T05:07:18;6.67;;;5.33;;
37777;SDS011;23615;51.506;7.678;2023-12-14T05:09:43;6.57;;;5.13;;
37777;SDS011;23615;51.506;7.678;2023-12-14T05:12:08;6.97;;;5.40;;
37777;SDS011;23615;51.506;7.678;2023-12-14T05:14:34;8.43;;;6.03;;
37777;SDS011;23615;51.506;7.678;2023-12-14T05:16:59;7.73;;;6.20;;
37777;SDS011;23615;51.506;7.678;2023-12-14T05:19:24;9.15;;;6.65;;
37777;SDS011;23615;51.506;7.678;2023-12-14T05:21:49;8.38;;;6.82;;
37777;SDS011;23615;51.506;7.678;2023-12-14T05:24:15;7.25;;;5.88;;
37777;SDS011;23615;51.506;7.678;2023-12-14T05:26:40;7.63;;;5.80;;
37777;SDS011;23615;51.506;7.678;2023-12-14T05:29:05;9.40;;;6.53;;
37777;SDS011;23615;51.506;7.678;2023-12-14T05:31:31;9.80;;;7.53;;
37777;SDS011;23615;51.506;7.678;2023-12-14T05:33:56;9.77;;;7.00;;
37777;SDS011;23615;51.506;7.678;2023-12-14T05:36:21;10.40;;;6.70;;
37777;SDS011;23615;51.506;7.678;2023-12-14T05:38:47;9.03;;;6.90;;
37777;SDS011;23615;51.506;7.678;2023-12-14T05:41:12;9.73;;;6.93;;
37777;SDS011;23615;51.506;7.678;2023-12-14T05:43:37;7.93;;;6.03;;
37777;SDS011;23615;51.506;7.678;2023-12-14T05:46:03;8.30;;;6.63;;
37777;SDS011;23615;51.506;7.678;2023-12-14T05:48:29;7.83;;;6.40;;
37777;SDS011;23615;51.506;7.678;2023-12-14T05:50:55;7.38;;;6.20;;
37777;SDS011;23615;51.506;7.678;2023-12-14T05:53:21;7.28;;;5.72;;
37777;SDS011;23615;51.506;7.678;2023-12-14T05:55:47;9.50;;;6.17;;
37777;SDS011;23615;51.506;7.678;2023-12-14T05:58:12;7.27;;;5.70;;
37777;SDS011;23615;51.506;7.678;2023-12-14T06:00:37;7.50;;;5.80;;
37777;SDS011;23615;51.506;7.678;2023-12-14T06:03:04;8.63;;;7.20;;
37777;SDS011;23615;51.506;7.678;2023-12-14T06:05:30;9.30;;;6.73;;
37777;SDS011;23615;51.506;7.678;2023-12-14T06:07:56;8.53;;;6.80;;
37777;SDS011;23615;51.506;7.678;2023-12-14T06:10:21;9.00;;;6.37;;
37777;SDS011;23615;51.506;7.678;2023-12-14T06:12:47;6.20;;;5.47;;
37777;SDS011;23615;51.506;7.678;2023-12-14T06:15:12;7.13;;;5.65;;
37777;SDS011;23615;51.506;7.678;2023-12-14T06:17:38;8.10;;;6.53;;
37777;SDS011;23615;51.506;7.678;2023-12-14T06:20:05;6.97;;;6.28;;
37777;SDS011;23615;51.506;7.678;2023-12-14T06:22:38;8.25;;;6.25;;
37777;SDS011;23615;51.506;7.678;2023-12-14T06:25:04;6.23;;;5.63;;
37777;SDS011;23615;51.506;7.678;2023-12-14T06:27:29;8.13;;;6.47;;
37777;SDS011;23615;51.506;7.678;2023-12-14T06:29:55;8.50;;;6.60;;
37777;SDS011;23615;51.506;7.678;2023-12-14T06:32:20;8.73;;;7.63;;
37777;SDS011;23615;51.506;7.678;2023-12-14T06:34:46;8.97;;;6.50;;
37777;SDS011;23615;51.506;7.678;2023-12-14T06:37:11;10.80;;;7.67;;
37777;SDS011;23615;51.506;7.678;2023-12-14T06:39:37;9.03;;;7.20;;
37777;SDS011;23615;51.506;7.678;2023-12-14T06:42:02;9.57;;;6.87;;
37777;SDS011;23615;51.506;7.678;2023-12-14T06:44:27;9.13;;;7.07;;
37777;SDS011;23615;51.506;7.678;2023-12-14T06:46:55;9.35;;;7.18;;
37777;SDS011;23615;51.506;7.678;2023-12-14T06:49:21;9.07;;;7.18;;
37777;SDS011;23615;51.506;7.678;2023-12-14T06:51:46;9.15;;;7.05;;
37777;SDS011;23615;51.506;7.678;2023-12-14T06:54:11;9.23;;;7.40;;
37777;SDS011;23615;51.506;7.678;2023-12-14T06:56:37;7.87;;;7.07;;
37777;SDS011;23615;51.506;7.678;2023-12-14T06:59:02;9.55;;;7.38;;
37777;SDS011;23615;51.506;7.678;2023-12-14T07:01:28;11.77;;;8.57;;
37777;SDS011;23615;51.506;7.678;2023-12-14T07:03:53;12.27;;;7.83;;
37777;SDS011;23615;51.506;7.678;2023-12-14T07:06:19;10.50;;;7.67;;
37777;SDS011;23615;51.506;7.678;2023-12-14T07:08:44;11.63;;;9.10;;
37777;SDS011;23615;51.506;7.678;2023-12-14T07:11:11;13.53;;;10.00;;
37777;SDS011;23615;51.506;7.678;2023-12-14T07:13:37;10.47;;;8.33;;
37777;SDS011;23615;51.506;7.678;2023-12-14T07:16:06;10.95;;;9.50;;
37777;SDS011;23615;51.506;7.678;2023-12-14T07:18:35;12.10;;;9.65;;
37777;SDS011;23615;51.506;7.678;2023-12-14T07:21:05;11.70;;;9.32;;
37777;SDS011;23615;51.506;7.678;2023-12-14T07:23:31;12.65;;;9.73;;
37777;SDS011;23615;51.506;7.678;2023-12-14T07:25:56;9.20;;;7.80;;
37777;SDS011;23615;51.506;7.678;2023-12-14T07:28:22;9.10;;;7.78;;
37777;SDS011;23615;51.506;7.678;2023-12-14T07:30:48;11.68;;;9.23;;
37777;SDS011;23615;51.506;7.678;2023-12-14T07:33:13;10.02;;;8.25;;
37777;SDS011;23615;51.506;7.678;2023-12-14T07:35:39;11.50;;;9.27;;
37777;SDS011;23615;51.506;7.678;2023-12-14T07:38:05;11.07;;;8.60;;
37777;SDS011;23615;51.506;7.678;2023-12-14T07:40:30;10.33;;;8.20;;
37777;SDS011;23615;51.506;7.678;2023-12-14T07:42:55;9.87;;;7.80;;
37777;SDS011;23615;51.506;7.678;2023-12-14T07:45:21;10.23;;;8.07;;
37777;SDS011;23615;51.506;7.678;2023-12-14T07:47:46;10.07;;;8.13;;
37777;SDS011;23615;51.506;7.678;2023-12-14T07:50:12;9.33;;;7.00;;
37777;SDS011;23615;51.506;7.678;2023-12-14T07:52:38;9.70;;;7.57;;
37777;SDS011;23615;51.506;7.678;2023-12-14T07:55:04;9.63;;;7.73;;
37777;SDS011;23615;51.506;7.678;2023-12-14T07:57:30;9.70;;;7.87;;
37777;SDS011;23615;51.506;7.678;2023-12-14T07:59:56;11.38;;;7.72;;
37777;SDS011;23615;51.506;7.678;2023-12-14T08:02:21;10.27;;;8.03;;
37777;SDS011;23615;51.506;7.678;2023-12-14T08:04:47;10.57;;;8.23;;
37777;SDS011;23615;51.506;7.678;2023-12-14T08:07:12;11.27;;;8.67;;
37777;SDS011;23615;51.506;7.678;2023-12-14T08:09:37;10.03;;;8.43;;
37777;SDS011;23615;51.506;7.678;2023-12-14T08:12:03;10.23;;;7.93;;
37777;SDS011;23615;51.506;7.678;2023-12-14T08:14:28;12.47;;;9.47;;
37777;SDS011;23615;51.506;7.678;2023-12-14T08:16:54;13.70;;;9.87;;
37777;SDS011;23615;51.506;7.678;2023-12-14T08:19:19;12.87;;;9.97;;
37777;SDS011;23615;51.506;7.678;2023-12-14T08:21:44;13.17;;;9.63;;
37777;SDS011;23615;51.506;7.678;2023-12-14T08:24:09;13.00;;;9.33;;
37777;SDS011;23615;51.506;7.678;2023-12-14T08:26:35;12.03;;;8.93;;
37777;SDS011;23615;51.506;7.678;2023-12-14T08:29:00;13.23;;;10.03;;
37777;SDS011;23615;51.506;7.678;2023-12-14T08:31:26;12.63;;;8.90;;
37777;SDS011;23615;51.506;7.678;2023-12-14T08:33:51;11.90;;;9.10;;
37777;SDS011;23615;51.506;7.678;2023-12-14T08:36:17;12.25;;;9.70;;
37777;SDS011;23615;51.506;7.678;2023-12-14T08:38:43;10.95;;;8.75;;
37777;SDS011;23615;51.506;7.678;2023-12-14T08:41:11;14.00;;;9.97;;
37777;SDS011;23615;51.506;7.678;2023-12-14T08:43:38;12.20;;;9.73;;
37777;SDS011;23615;51.506;7.678;2023-12-14T08:46:03;12.80;;;9.27;;
37777;SDS011;23615;51.506;7.678;2023-12-14T08:48:28;11.50;;;8.77;;
37777;SDS011;23615;51.506;7.678;2023-12-14T08:50:54;11.60;;;9.27;;
37777;SDS011;23615;51.506;7.678;2023-12-14T08:53:20;12.50;;;9.75;;
37777;SDS011;23615;51.506;7.678;2023-12-14T08:55:45;12.27;;;9.32;;
37777;SDS011;23615;51.506;7.678;2023-12-14T08:58:11;11.75;;;8.93;;
37777;SDS011;23615;51.506;7.678;2023-12-14T09:00:36;12.90;;;10.57;;
37777;SDS011;23615;51.506;7.678;2023-12-14T09:03:03;13.40;;;10.90;;
37777;SDS011;23615;51.506;7.678;2023-12-14T09:05:28;14.27;;;11.07;;
37777;SDS011;23615;51.506;7.678;2023-12-14T09:07:54;14.67;;;11.93;;
37777;SDS011;23615;51.506;7.678;2023-12-14T09:10:21;16.70;;;12.15;;
37777;SDS011;23615;51.506;7.678;2023-12-14T09:12:47;16.80;;;12.25;;
37777;SDS011;23615;51.506;7.678;2023-12-14T09:15:13;16.30;;;12.40;;
37777;SDS011;23615;51.506;7.678;2023-12-14T09:17:40;15.80;;;12.07;;
37777;SDS011;23615;51.506;7.678;2023-12-14T09:20:07;17.43;;;12.47;;
37777;SDS011;23615;51.506;7.678;2023-12-14T09:22:33;16.80;;;11.60;;
37777;SDS011;23615;51.506;7.678;2023-12-14T09:24:58;14.63;;;12.17;;
37777;SDS011;23615;51.506;7.678;2023-12-14T09:27:23;16.70;;;11.93;;
37777;SDS011;23615;51.506;7.678;2023-12-14T09:29:49;16.33;;;12.60;;
37777;SDS011;23615;51.506;7.678;2023-12-14T09:32:14;17.13;;;12.77;;
37777;SDS011;23615;51.506;7.678;2023-12-14T09:34:42;15.52;;;11.60;;
37777;SDS011;23615;51.506;7.678;2023-12-14T09:37:07;15.37;;;11.33;;
37777;SDS011;23615;51.506;7.678;2023-12-14T09:39:33;16.10;;;12.47;;
37777;SDS011;23615;51.506;7.678;2023-12-14T09:42:04;17.37;;;13.57;;
37777;SDS011;23615;51.506;7.678;2023-12-14T09:44:31;14.32;;;11.45;;
37777;SDS011;23615;51.506;7.678;2023-12-14T09:46:57;18.23;;;12.00;;
37777;SDS011;23615;51.506;7.678;2023-12-14T09:49:25;17.87;;;13.30;;
37777;SDS011;23615;51.506;7.678;2023-12-14T09:51:58;15.45;;;11.73;;
37777;SDS011;23615;51.506;7.678;2023-12-14T09:54:27;14.80;;;11.38;;
37777;SDS011;23615;51.506;7.678;2023-12-14T09:56:52;15.38;;;11.27;;
37777;SDS011;23615;51.506;7.678;2023-12-14T09:59:19;16.90;;;12.80;;
37777;SDS011;23615;51.506;7.678;2023-12-14T10:01:44;17.27;;;12.48;;
37777;SDS011;23615;51.506;7.678;2023-12-14T10:04:14;16.75;;;12.98;;
37777;SDS011;23615;51.506;7.678;2023-12-14T10:06:41;17.80;;;13.70;;
37777;SDS011;23615;51.506;7.678;2023-12-14T10:09:08;17.60;;;12.90;;
37777;SDS011;23615;51.506;7.678;2023-12-14T10:11:43;17.17;;;13.05;;
37777;SDS011;23615;51.506;7.678;2023-12-14T10:14:22;17.23;;;12.80;;
37777;SDS011;23615;51.506;7.678;2023-12-14T10:16:49;16.17;;;12.30;;
37777;SDS011;23615;51.506;7.678;2023-12-14T10:19:16;16.98;;;12.40;;
37777;SDS011;23615;51.506;7.678;2023-12-14T10:21:43;16.00;;;12.23;;
37777;SDS011;23615;51.506;7.678;2023-12-14T10:24:08;21.35;;;15.40;;
37777;SDS011;23615;51.506;7.678;2023-12-14T10:26:33;21.83;;;14.93;;
37777;SDS011;23615;51.506;7.678;2023-12-14T10:28:59;21.17;;;14.53;;
37777;SDS011;23615;51.506;7.678;2023-12-14T10:31:24;23.05;;;14.82;;
37777;SDS011;23615;51.506;7.678;2023-12-14T10:33:51;17.48;;;13.63;;
37777;SDS011;23615;51.506;7.678;2023-12-14T10:36:21;19.30;;;13.95;;
37777;SDS011;23615;51.506;7.678;2023-12-14T10:38:52;18.98;;;13.43;;
37777;SDS011;23615;51.506;7.678;2023-12-14T10:41:18;19.63;;;13.48;;
37777;SDS011;23615;51.506;7.678;2023-12-14T10:43:43;20.87;;;13.40;;
37777;SDS011;23615;51.506;7.678;2023-12-14T10:46:10;20.88;;;14.25;;
37777;SDS011;23615;51.506;7.678;2023-12-14T10:48:36;19.67;;;14.40;;
37777;SDS011;23615;51.506;7.678;2023-12-14T10:51:07;16.00;;;11.98;;
37777;SDS011;23615;51.506;7.678;2023-12-14T10:53:33;14.93;;;11.40;;
37777;SDS011;23615;51.506;7.678;2023-12-14T10:56:00;13.45;;;10.27;;
37777;SDS011;23615;51.506;7.678;2023-12-14T10:58:47;16.00;;;10.75;;
37777;SDS011;23615;51.506;7.678;2023-12-14T11:01:14;18.45;;;13.32;;
37777;SDS011;23615;51.506;7.678;2023-12-14T11:03:41;17.42;;;12.77;;
37777;SDS011;23615;51.506;7.678;2023-12-14T11:08:58;16.20;;;12.05;;
37777;SDS011;23615;51.506;7.678;2023-12-14T11:11:38;15.55;;;12.18;;
37777;SDS011;23615;51.506;7.678;2023-12-14T11:14:07;16.50;;;12.10;;
37777;SDS011;23615;51.506;7.678;2023-12-14T11:16:33;15.15;;;11.23;;
37777;SDS011;23615;51.506;7.678;2023-12-14T11:21:46;13.02;;;9.80;;
37777;SDS011;23615;51.506;7.678;2023-12-14T11:24:11;13.07;;;10.13;;
37777;SDS011;23615;51.506;7.678;2023-12-14T11:26:37;16.42;;;11.95;;
37777;SDS011;23615;51.506;7.678;2023-12-14T11:29:02;15.83;;;11.13;;
37777;SDS011;23615;51.506;7.678;2023-12-14T11:31:29;15.60;;;11.70;;
37777;SDS011;23615;51.506;7.678;2023-12-14T11:34:04;16.53;;;12.27;;
37777;SDS011;23615;51.506;7.678;2023-12-14T11:36:32;16.20;;;11.93;;
37777;SDS011;23615;51.506;7.678;2023-12-14T11:38:58;13.93;;;10.73;;
37777;SDS011;23615;51.506;7.678;2023-12-14T11:41:23;14.93;;;11.55;;
37777;SDS011;23615;51.506;7.678;2023-12-14T11:43:50;16.33;;;12.43;;
37777;SDS011;23615;51.506;7.678;2023-12-14T11:46:16;16.20;;;12.05;;
37777;SDS011;23615;51.506;7.678;2023-12-14T11:48:45;13.23;;;10.73;;
37777;SDS011;23615;51.506;7.678;2023-12-14T11:51:14;13.85;;;10.88;;
37777;SDS011;23615;51.506;7.678;2023-12-14T11:53:40;14.45;;;10.80;;
37777;SDS011;23615;51.506;7.678;2023-12-14T11:56:09;14.57;;;10.40;;
37777;SDS011;23615;51.506;7.678;2023-12-14T11:58:35;15.13;;;11.77;;
37777;SDS011;23615;51.506;7.678;2023-12-14T12:01:17;13.60;;;10.77;;
37777;SDS011;23615;51.506;7.678;2023-12-14T12:03:44;12.70;;;10.73;;
37777;SDS011;23615;51.506;7.678;2023-12-14T12:06:20;14.45;;;10.85;;
37777;SDS011;23615;51.506;7.678;2023-12-14T12:08:50;12.38;;;10.00;;
37777;SDS011;23615;51.506;7.678;2023-12-14T12:11:16;12.75;;;10.23;;
37777;SDS011;23615;51.506;7.678;2023-12-14T12:13:42;13.40;;;10.00;;
37777;SDS011;23615;51.506;7.678;2023-12-14T12:16:08;14.00;;;10.57;;
37777;SDS011;23615;51.506;7.678;2023-12-14T12:18:33;14.07;;;11.57;;
37777;SDS011;23615;51.506;7.678;2023-12-14T12:20:58;14.80;;;12.03;;
37777;SDS011;23615;51.506;7.678;2023-12-14T12:23:28;14.20;;;11.33;;
37777;SDS011;23615;51.506;7.678;2023-12-14T12:25:54;15.37;;;11.60;;
37777;SDS011;23615;51.506;7.678;2023-12-14T12:28:20;15.73;;;12.30;;
37777;SDS011;23615;51.506;7.678;2023-12-14T12:30:46;12.82;;;10.48;;
37777;SDS011;23615;51.506;7.678;2023-12-14T12:33:12;12.93;;;10.17;;
37777;SDS011;23615;51.506;7.678;2023-12-14T12:35:38;12.18;;;10.25;;
37777;SDS011;23615;51.506;7.678;2023-12-14T12:38:03;12.63;;;10.37;;
37777;SDS011;23615;51.506;7.678;2023-12-14T12:40:28;14.77;;;10.97;;
37777;SDS011;23615;51.506;7.678;2023-12-14T12:42:56;13.90;;;10.07;;
37777;SDS011;23615;51.506;7.678;2023-12-14T12:45:21;13.17;;;10.63;;
37777;SDS011;23615;51.506;7.678;2023-12-14T12:47:47;15.57;;;11.35;;
37777;SDS011;23615;51.506;7.678;2023-12-14T12:50:13;16.00;;;11.53;;
37777;SDS011;23615;51.506;7.678;2023-12-14T12:52:38;11.98;;;9.95;;
37777;SDS011;23615;51.506;7.678;2023-12-14T12:55:05;11.57;;;9.55;;
37777;SDS011;23615;51.506;7.678;2023-12-14T12:57:31;13.40;;;10.52;;
37777;SDS011;23615;51.506;7.678;2023-12-14T12:59:57;13.67;;;10.57;;
37777;SDS011;23615;51.506;7.678;2023-12-14T13:02:22;11.18;;;8.80;;
37777;SDS011;23615;51.506;7.678;2023-12-14T13:04:48;10.50;;;8.48;;
37777;SDS011;23615;51.506;7.678;2023-12-14T13:07:13;10.50;;;8.87;;
37777;SDS011;23615;51.506;7.678;2023-12-14T13:09:39;11.30;;;8.33;;
37777;SDS011;23615;51.506;7.678;2023-12-14T13:12:05;12.33;;;9.63;;
37777;SDS011;23615;51.506;7.678;2023-12-14T13:14:31;11.77;;;8.97;;
37777;SDS011;23615;51.506;7.678;2023-12-14T13:16:56;11.70;;;9.27;;
37777;SDS011;23615;51.506;7.678;2023-12-14T13:19:23;12.50;;;10.02;;
37777;SDS011;23615;51.506;7.678;2023-12-14T13:21:49;13.17;;;10.00;;
37777;SDS011;23615;51.506;7.678;2023-12-14T13:24:14;10.10;;;8.27;;
37777;SDS011;23615;51.506;7.678;2023-12-14T13:26:39;12.93;;;10.63;;
37777;SDS011;23615;51.506;7.678;2023-12-14T13:29:04;14.47;;;11.60;;
37777;SDS011;23615;51.506;7.678;2023-12-14T13:31:30;17.17;;;11.77;;
37777;SDS011;23615;51.506;7.678;2023-12-14T13:33:55;16.07;;;11.93;;
37777;SDS011;23615;51.506;7.678;2023-12-14T13:36:20;13.97;;;10.97;;
37777;SDS011;23615;51.506;7.678;2023-12-14T13:38:46;16.27;;;12.40;;
37777;SDS011;23615;51.506;7.678;2023-12-14T13:41:12;15.47;;;11.30;;
37777;SDS011;23615;51.506;7.678;2023-12-14T13:43:37;15.37;;;12.10;;
37777;SDS011;23615;51.506;7.678;2023-12-14T13:46:03;14.15;;;10.82;;
37777;SDS011;23615;51.506;7.678;2023-12-14T13:48:28;14.63;;;11.48;;
37777;SDS011;23615;51.506;7.678;2023-12-14T13:50:54;16.13;;;11.30;;
37777;SDS011;23615;51.506;7.678;2023-12-14T13:53:20;16.75;;;12.70;;
37777;SDS011;23615;51.506;7.678;2023-12-14T13:55:46;16.83;;;12.30;;
37777;SDS011;23615;51.506;7.678;2023-12-14T13:58:12;18.80;;;12.23;;
37777;SDS011;23615;51.506;7.678;2023-12-14T14:00:37;17.67;;;12.10;;
37777;SDS011;23615;51.506;7.678;2023-12-14T14:03:03;16.93;;;12.33;;
37777;SDS011;23615;51.506;7.678;2023-12-14T14:05:30;14.93;;;10.65;;
37777;SDS011;23615;51.506;7.678;2023-12-14T14:07:56;17.40;;;11.52;;
37777;SDS011;23615;51.506;7.678;2023-12-14T14:10:21;16.17;;;10.37;;
37777;SDS011;23615;51.506;7.678;2023-12-14T14:12:47;16.37;;;11.60;;
37777;SDS011;23615;51.506;7.678;2023-12-14T14:15:12;16.52;;;11.65;;
37777;SDS011;23615;51.506;7.678;2023-12-14T14:17:38;16.50;;;10.70;;
37777;SDS011;23615;51.506;7.678;2023-12-14T14:20:03;14.70;;;10.20;;
37777;SDS011;23615;51.506;7.678;2023-12-14T14:22:30;16.50;;;11.32;;
37777;SDS011;23615;51.506;7.678;2023-12-14T14:24:55;14.32;;;10.07;;
37777;SDS011;23615;51.506;7.678;2023-12-14T14:27:21;14.90;;;10.35;;
37777;SDS011;23615;51.506;7.678;2023-12-14T14:29:46;15.43;;;10.43;;
37777;SDS011;23615;51.506;7.678;2023-12-14T14:32:12;15.03;;;10.47;;
37777;SDS011;23615;51.506;7.678;2023-12-14T14:34:38;17.88;;;11.75;;